East TN State Univ, Tennessee
Current Conditions -  °F | °C
As of 6:53 AM on Thursday 27 Nov 2014 (Local Time) from KTRI Reporting Station
Light Snow Light Snow  
Wind Chill: -1°   Ceiling: 600
Heat Index:   Visibility: 9mi
Dew Point:   Wind: 5mph
Humidity: 96%   Direction: 240°WSW
Pressure: 30.04"   Gusts: NA
Location:  36.3658°N, 82.4151°W
Report Text: KTRI 271153Z 24004KT 9SM -SN OVC006 01/01 A3004 RMK AO2 SLP171 4/000 P0000 60016 70032 T00110006 10044 20006 53013
Loading
Personal Weather Stations






























Interactive Weather Map New forecast layout! Learn more

10-Day Weather Forecast

Advertisements
Track Severe Weather on mobile